createdAt,value
2017-08-14T00:00:20.379Z,92.70
2017-08-14T00:02:49.544Z,92.80
2017-08-14T00:05:17.938Z,92.80
2017-08-14T00:07:46.338Z,92.80
2017-08-14T00:10:14.748Z,92.90
2017-08-14T00:12:43.252Z,92.80
2017-08-14T00:15:11.693Z,92.80
2017-08-14T00:17:40.060Z,92.80
2017-08-14T00:20:08.429Z,92.80
2017-08-14T00:22:38.659Z,92.90
2017-08-14T00:25:07.047Z,92.90
2017-08-14T00:27:35.477Z,92.80
2017-08-14T00:30:03.860Z,92.80
2017-08-14T00:32:32.233Z,92.90
2017-08-14T00:35:00.637Z,92.90
2017-08-14T00:37:30.180Z,93.00
2017-08-14T00:39:58.695Z,93.00
2017-08-14T00:42:27.119Z,93.00
2017-08-14T00:44:56.291Z,93.00
2017-08-14T00:47:24.711Z,93.00
2017-08-14T00:49:53.144Z,93.20
2017-08-14T00:52:21.528Z,93.10
2017-08-14T00:54:49.948Z,93.10
2017-08-14T00:57:18.322Z,93.10
2017-08-14T00:59:46.737Z,93.10
2017-08-14T01:02:15.810Z,93.10
2017-08-14T01:04:46.114Z,93.10
2017-08-14T01:07:14.846Z,93.10
2017-08-14T01:09:43.812Z,93.20
2017-08-14T01:12:12.239Z,93.30
2017-08-14T01:14:40.610Z,93.30
2017-08-14T01:17:09.060Z,93.40
2017-08-14T01:19:37.462Z,93.40
2017-08-14T01:22:07.022Z,93.40
2017-08-14T01:24:35.703Z,93.40
2017-08-14T01:27:04.327Z,93.50
2017-08-14T01:29:32.919Z,93.50
2017-08-14T01:32:01.538Z,93.50
2017-08-14T01:34:30.670Z,93.60
2017-08-14T01:36:59.093Z,93.50
2017-08-14T01:39:27.442Z,93.60
2017-08-14T01:41:55.911Z,93.60
2017-08-14T01:44:24.319Z,93.70
2017-08-14T01:46:52.688Z,93.70
2017-08-14T01:49:22.767Z,93.70
2017-08-14T01:51:52.067Z,93.80
2017-08-14T01:54:20.737Z,93.70
2017-08-14T01:56:49.157Z,93.80
2017-08-14T01:59:17.515Z,93.90
2017-08-14T02:01:45.926Z,93.90
2017-08-14T02:04:14.272Z,93.90
2017-08-14T02:06:42.621Z,93.90
2017-08-14T02:09:11.798Z,93.90
2017-08-14T02:11:40.343Z,93.90
2017-08-14T02:14:08.731Z,94.00
2017-08-14T02:16:37.450Z,94.30
2017-08-14T02:19:05.851Z,94.00
2017-08-14T02:21:34.198Z,94.00
2017-08-14T02:24:02.658Z,94.00
2017-08-14T02:26:31.059Z,94.10
2017-08-14T02:28:59.421Z,94.10
2017-08-14T02:31:28.468Z,94.20
2017-08-14T02:33:56.895Z,94.20
2017-08-14T02:36:26.132Z,94.20
2017-08-14T02:38:55.421Z,94.20
2017-08-14T02:41:23.827Z,94.30
2017-08-14T02:43:52.993Z,94.40
2017-08-14T02:46:21.360Z,94.40
2017-08-14T02:48:49.739Z,94.30
2017-08-14T02:51:18.131Z,94.40
2017-08-14T02:53:46.489Z,94.40
2017-08-14T02:56:14.872Z,94.40
2017-08-14T02:58:43.223Z,94.40
2017-08-14T03:01:11.639Z,94.30
2017-08-14T03:03:41.036Z,94.30
2017-08-14T03:06:09.479Z,94.30
2017-08-14T03:08:37.821Z,94.30
2017-08-14T03:11:06.176Z,94.30
2017-08-14T03:13:36.231Z,94.40
2017-08-14T03:16:06.372Z,94.40
2017-08-14T03:18:34.773Z,94.40
2017-08-14T03:21:03.142Z,94.30
2017-08-14T03:23:31.594Z,94.40
2017-08-14T03:26:00.538Z,94.50
2017-08-14T03:28:29.075Z,94.50
2017-08-14T03:30:57.440Z,94.40
2017-08-14T03:33:25.822Z,94.40
2017-08-14T03:35:54.197Z,94.40
2017-08-14T03:38:22.937Z,94.40
2017-08-14T03:40:51.297Z,94.50
2017-08-14T03:43:19.679Z,94.50
2017-08-14T03:45:48.099Z,94.50
2017-08-14T03:48:16.467Z,94.50
2017-08-14T03:50:44.909Z,94.50
2017-08-14T03:53:13.264Z,94.50
2017-08-14T03:55:42.331Z,94.60
2017-08-14T03:58:12.228Z,94.50
2017-08-14T04:00:40.639Z,94.60
2017-08-14T04:03:09.769Z,94.60
2017-08-14T04:05:38.641Z,94.60
2017-08-14T04:08:07.063Z,94.60
2017-08-14T04:10:35.410Z,94.60
2017-08-14T04:13:03.879Z,94.50
2017-08-14T04:15:32.259Z,94.50
2017-08-14T04:18:00.651Z,94.60
2017-08-14T04:20:29.087Z,94.60
2017-08-14T04:22:57.512Z,94.60
2017-08-14T04:25:25.905Z,94.60
2017-08-14T04:27:54.312Z,94.60
2017-08-14T04:30:22.719Z,94.60
2017-08-14T04:32:51.849Z,94.70
2017-08-14T04:35:20.280Z,94.70
2017-08-14T04:37:49.427Z,94.60
2017-08-14T04:40:18.364Z,94.60
2017-08-14T04:42:47.217Z,94.60
2017-08-14T04:45:15.571Z,94.50
2017-08-14T04:47:44.346Z,94.50
2017-08-14T04:50:12.776Z,94.60
2017-08-14T04:52:41.201Z,94.60
2017-08-14T04:55:09.565Z,94.50
2017-08-14T04:57:37.983Z,94.50
2017-08-14T05:00:06.382Z,94.40
2017-08-14T05:02:34.774Z,94.60
2017-08-14T05:05:03.229Z,94.40
2017-08-14T05:07:31.613Z,94.20
2017-08-14T05:09:59.989Z,94.10
2017-08-14T05:12:28.408Z,93.90
2017-08-14T05:14:56.752Z,93.50
2017-08-14T05:17:25.220Z,93.50
2017-08-14T05:19:53.607Z,93.50
2017-08-14T05:22:21.977Z,93.50
2017-08-14T05:24:50.402Z,93.50
2017-08-14T05:27:18.812Z,93.40
2017-08-14T05:29:48.036Z,92.90
2017-08-14T05:32:16.491Z,92.90
2017-08-14T05:34:44.907Z,92.70
2017-08-14T05:37:13.315Z,92.20
2017-08-14T05:39:41.709Z,92.00
2017-08-14T05:42:10.124Z,91.70
2017-08-14T05:44:38.547Z,91.60
2017-08-14T05:47:06.967Z,91.40
2017-08-14T05:49:35.356Z,91.10
2017-08-14T05:52:03.709Z,91.00
2017-08-14T05:54:32.119Z,90.70
2017-08-14T05:57:00.476Z,90.90
2017-08-14T05:59:29.605Z,90.40
2017-08-14T06:01:58.093Z,90.30
2017-08-14T06:04:26.521Z,89.80
2017-08-14T06:06:55.723Z,89.00
2017-08-14T06:09:24.170Z,90.00
2017-08-14T06:11:52.536Z,88.80
2017-08-14T06:14:20.928Z,88.90
2017-08-14T06:16:49.366Z,88.60
2017-08-14T06:19:17.717Z,88.10
2017-08-14T06:21:46.080Z,86.30
2017-08-14T06:24:14.491Z,87.10
2017-08-14T06:26:42.867Z,85.40
2017-08-14T06:29:11.979Z,83.30
2017-08-14T06:31:40.379Z,83.30
2017-08-14T06:34:08.825Z,83.50
2017-08-14T06:36:37.226Z,83.50
2017-08-14T06:39:05.697Z,83.10
2017-08-14T06:41:34.049Z,83.80
2017-08-14T06:44:03.147Z,85.00
2017-08-14T06:46:32.327Z,84.90
2017-08-14T06:49:00.813Z,84.90
2017-08-14T06:51:29.268Z,84.40
2017-08-14T06:53:57.654Z,84.00
2017-08-14T06:56:26.441Z,83.70
2017-08-14T06:58:54.799Z,83.60
2017-08-14T07:01:23.150Z,83.60
2017-08-14T07:03:51.683Z,82.70
2017-08-14T07:06:20.178Z,81.90
2017-08-14T07:08:49.412Z,82.00
2017-08-14T07:11:17.788Z,81.50
2017-08-14T07:13:46.158Z,80.90
2017-08-14T07:16:14.662Z,81.40
2017-08-14T07:18:47.649Z,80.30
2017-08-14T07:21:24.264Z,80.50
2017-08-14T07:23:52.632Z,79.60
2017-08-14T07:26:21.046Z,79.50
2017-08-14T07:28:49.414Z,79.40
2017-08-14T07:31:17.780Z,78.70
2017-08-14T07:33:46.170Z,79.30
2017-08-14T07:36:14.648Z,78.30
2017-08-14T07:38:43.075Z,78.20
2017-08-14T07:41:11.401Z,78.80
2017-08-14T07:43:39.913Z,77.20
2017-08-14T07:46:08.293Z,76.00
2017-08-14T07:48:36.690Z,76.10
2017-08-14T07:51:05.045Z,74.10
2017-08-14T07:53:33.425Z,74.80
2017-08-14T07:56:01.868Z,75.30
2017-08-14T07:58:30.218Z,75.50
2017-08-14T08:01:00.398Z,75.30
2017-08-14T08:03:29.349Z,71.50
2017-08-14T08:05:58.696Z,71.90
2017-08-14T08:08:27.086Z,73.10
2017-08-14T08:10:55.495Z,72.10
2017-08-14T08:13:23.953Z,73.60
2017-08-14T08:15:52.319Z,69.60
2017-08-14T08:18:20.724Z,70.10
2017-08-14T08:20:49.082Z,68.10
2017-08-14T08:23:17.488Z,67.60
2017-08-14T08:25:45.880Z,68.80
2017-08-14T08:28:14.280Z,71.10
2017-08-14T08:30:43.437Z,71.10
2017-08-14T08:33:11.809Z,70.90
2017-08-14T08:35:40.172Z,68.70
2017-08-14T08:38:08.553Z,68.40
2017-08-14T08:40:36.976Z,68.30
2017-08-14T08:43:05.325Z,67.20
2017-08-14T08:45:34.569Z,66.10
2017-08-14T08:48:04.480Z,64.10
2017-08-14T08:50:33.648Z,62.90
2017-08-14T08:53:02.040Z,62.90
2017-08-14T08:55:30.443Z,64.70
2017-08-14T08:57:59.626Z,65.90
2017-08-14T09:00:27.987Z,65.20
2017-08-14T09:02:56.382Z,66.40
2017-08-14T09:05:24.769Z,64.00
2017-08-14T09:07:53.160Z,63.40
2017-08-14T09:10:22.304Z,64.60
2017-08-14T09:12:50.720Z,64.50
2017-08-14T09:15:19.280Z,63.30
2017-08-14T09:17:47.686Z,64.50
2017-08-14T09:20:16.201Z,63.40
2017-08-14T09:22:44.589Z,63.70
2017-08-14T09:25:13.090Z,63.70
2017-08-14T09:27:41.465Z,65.20
2017-08-14T09:30:09.871Z,63.30
2017-08-14T09:32:38.241Z,61.90
2017-08-14T09:35:06.724Z,60.80
2017-08-14T09:37:35.812Z,60.20
2017-08-14T09:40:04.375Z,61.40
2017-08-14T09:42:32.791Z,60.40
2017-08-14T09:45:02.074Z,59.40
2017-08-14T09:47:30.418Z,59.80
2017-08-14T09:49:58.832Z,61.00
2017-08-14T09:52:27.188Z,63.00
2017-08-14T09:54:55.560Z,62.60
2017-08-14T09:57:24.001Z,60.50
2017-08-14T09:59:52.435Z,59.50
2017-08-14T10:02:20.795Z,58.20
2017-08-14T10:04:49.193Z,58.90
2017-08-14T10:07:17.533Z,58.30
2017-08-14T10:09:45.976Z,58.60
2017-08-14T10:12:15.146Z,61.40
2017-08-14T10:14:45.892Z,61.40
2017-08-14T10:17:14.289Z,60.50
2017-08-14T10:19:44.307Z,60.70
2017-08-14T10:22:12.748Z,59.00
2017-08-14T10:24:41.200Z,58.80
2017-08-14T10:27:09.590Z,60.90
2017-08-14T10:29:38.063Z,60.70
2017-08-14T10:32:06.465Z,59.20
2017-08-14T10:34:35.078Z,59.00
2017-08-14T10:37:04.354Z,61.30
2017-08-14T10:39:32.737Z,61.30
2017-08-14T10:42:01.277Z,59.40
2017-08-14T10:44:29.640Z,60.00
2017-08-14T10:46:58.009Z,59.10
2017-08-14T10:49:26.456Z,59.50
2017-08-14T10:51:54.878Z,60.00
2017-08-14T10:54:23.401Z,60.70
2017-08-14T10:56:52.608Z,59.30
2017-08-14T10:59:23.085Z,61.00
2017-08-14T11:01:51.639Z,62.10
2017-08-14T11:04:20.119Z,60.20
2017-08-14T11:06:49.329Z,60.60
2017-08-14T11:09:18.639Z,59.90
2017-08-14T11:11:47.497Z,59.90
2017-08-14T11:14:15.917Z,61.70
2017-08-14T11:16:44.313Z,60.50
2017-08-14T11:19:12.715Z,59.70
2017-08-14T11:21:41.104Z,60.00
2017-08-14T11:24:09.540Z,60.90
2017-08-14T11:26:37.908Z,60.60
2017-08-14T11:29:06.454Z,58.40
2017-08-14T11:31:35.595Z,58.20
2017-08-14T11:34:04.032Z,58.10
2017-08-14T11:36:32.626Z,58.70
2017-08-14T11:39:01.798Z,59.40
2017-08-14T11:41:30.164Z,59.50
2017-08-14T11:43:59.218Z,58.90
2017-08-14T11:46:27.599Z,58.20
2017-08-14T11:48:56.028Z,57.30
2017-08-14T11:51:24.491Z,58.80
2017-08-14T11:53:52.900Z,58.10
2017-08-14T11:56:21.320Z,58.30
2017-08-14T11:58:49.689Z,58.00
2017-08-14T12:01:18.095Z,56.60
2017-08-14T12:03:46.504Z,56.10
2017-08-14T12:06:14.913Z,56.20
2017-08-14T12:08:43.299Z,56.10
2017-08-14T12:11:11.724Z,55.50
2017-08-14T12:13:40.120Z,55.40
2017-08-14T12:16:08.599Z,56.10
2017-08-14T12:18:36.992Z,56.60
2017-08-14T12:21:06.291Z,56.90
2017-08-14T12:23:34.681Z,57.10
2017-08-14T12:26:04.486Z,57.20
2017-08-14T12:28:32.855Z,56.80
2017-08-14T12:31:01.883Z,57.50
2017-08-14T12:33:30.303Z,56.80
2017-08-14T12:35:58.679Z,56.40
2017-08-14T12:38:27.072Z,53.60
2017-08-14T12:40:55.432Z,53.60
2017-08-14T12:43:23.866Z,53.00
2017-08-14T12:45:53.012Z,54.30
2017-08-14T12:48:21.544Z,54.40
2017-08-14T12:50:50.099Z,55.80
2017-08-14T12:53:18.460Z,55.80
2017-08-14T12:55:47.209Z,56.30
2017-08-14T12:58:15.588Z,55.70
2017-08-14T13:00:44.059Z,56.00
2017-08-14T13:03:12.456Z,56.60
2017-08-14T13:05:40.872Z,56.40
2017-08-14T13:08:09.313Z,56.50
2017-08-14T13:10:38.288Z,56.20
2017-08-14T13:13:07.440Z,56.40
2017-08-14T13:15:35.833Z,56.40
2017-08-14T13:18:04.296Z,56.80
2017-08-14T13:20:32.649Z,56.30
2017-08-14T13:23:01.052Z,56.60
2017-08-14T13:25:29.477Z,55.00
2017-08-14T13:27:57.875Z,54.80
2017-08-14T13:30:26.277Z,56.00
2017-08-14T13:32:54.645Z,56.70
2017-08-14T13:35:22.984Z,57.60
2017-08-14T13:37:52.184Z,58.10
2017-08-14T13:40:21.326Z,58.00
2017-08-14T13:42:49.742Z,58.00
2017-08-14T13:45:18.217Z,57.40
2017-08-14T13:47:47.174Z,56.60
2017-08-14T13:50:15.616Z,56.80
2017-08-14T13:52:44.752Z,57.20
2017-08-14T13:55:13.192Z,57.20
2017-08-14T13:57:43.170Z,57.30
2017-08-14T14:00:12.571Z,57.30
2017-08-14T14:02:41.028Z,58.30
2017-08-14T14:05:09.441Z,57.80
2017-08-14T14:07:37.854Z,57.10
2017-08-14T14:10:06.211Z,55.50
2017-08-14T14:12:34.676Z,56.20
2017-08-14T14:15:03.022Z,56.10
2017-08-14T14:17:31.385Z,56.40
2017-08-14T14:19:59.793Z,57.00
2017-08-14T14:22:28.200Z,56.50
2017-08-14T14:24:56.632Z,56.60
2017-08-14T14:27:25.188Z,55.70
2017-08-14T14:29:53.603Z,55.60
2017-08-14T14:32:22.049Z,55.90
2017-08-14T14:34:52.959Z,55.80
2017-08-14T14:37:22.806Z,55.90
2017-08-14T14:39:51.257Z,56.40
2017-08-14T14:42:19.659Z,56.70
2017-08-14T14:47:22.792Z,57.40
2017-08-14T14:49:51.195Z,57.30
2017-08-14T14:52:19.618Z,57.20
2017-08-14T14:54:48.032Z,57.00
2017-08-14T14:57:19.832Z,55.90
2017-08-14T14:59:54.093Z,56.60
2017-08-14T15:02:22.783Z,56.30
2017-08-14T15:04:51.187Z,56.20
2017-08-14T15:07:20.371Z,57.30
2017-08-14T15:09:48.771Z,56.60
2017-08-14T15:12:17.123Z,57.00
2017-08-14T15:14:45.515Z,56.70
2017-08-14T15:17:13.922Z,57.20
2017-08-14T15:19:42.315Z,56.00
2017-08-14T15:22:11.442Z,55.20
2017-08-14T15:24:39.843Z,55.20
2017-08-14T15:27:08.296Z,56.00
2017-08-14T15:29:36.689Z,55.00
2017-08-14T15:32:05.048Z,54.90
2017-08-14T15:34:33.433Z,54.50
2017-08-14T15:37:01.788Z,54.10
2017-08-14T15:39:30.933Z,54.70
2017-08-14T15:44:45.858Z,53.60
2017-08-14T15:47:14.230Z,53.60
2017-08-14T15:49:42.689Z,54.70
2017-08-14T15:52:11.117Z,54.70
2017-08-14T15:54:39.592Z,55.50
2017-08-14T15:57:08.047Z,54.90
2017-08-14T15:59:36.428Z,54.80
2017-08-14T16:02:04.832Z,55.30
2017-08-14T16:04:33.319Z,55.00
2017-08-14T16:07:01.778Z,54.40
2017-08-14T16:09:30.905Z,55.60
2017-08-14T16:11:59.335Z,54.90
2017-08-14T16:14:27.826Z,55.00
2017-08-14T16:16:56.296Z,55.00
2017-08-14T16:19:36.743Z,55.70
2017-08-14T16:22:05.090Z,55.30
2017-08-14T16:24:36.729Z,55.00
2017-08-14T16:27:05.830Z,55.90
2017-08-14T16:29:34.237Z,55.70
2017-08-14T16:32:02.816Z,56.10
2017-08-14T16:34:31.205Z,56.10
2017-08-14T16:36:59.620Z,56.30
2017-08-14T16:39:28.878Z,57.60
2017-08-14T16:41:57.270Z,57.60
2017-08-14T16:44:25.793Z,57.70
2017-08-14T16:46:54.416Z,57.80
2017-08-14T16:49:22.779Z,58.00
2017-08-14T16:51:51.190Z,58.20
2017-08-14T16:54:19.593Z,58.20
2017-08-14T16:56:47.921Z,58.40
2017-08-14T16:59:16.359Z,59.00
2017-08-14T17:01:44.777Z,59.30
2017-08-14T17:04:14.660Z,58.60
2017-08-14T17:06:43.061Z,59.10
2017-08-14T17:09:12.013Z,59.30
2017-08-14T17:11:40.406Z,59.30
2017-08-14T17:14:08.785Z,59.70
2017-08-14T17:16:37.936Z,60.50
2017-08-14T17:19:06.358Z,60.00
2017-08-14T17:21:35.526Z,60.60
2017-08-14T17:24:03.903Z,60.60
2017-08-14T17:26:32.261Z,60.90
2017-08-14T17:29:00.682Z,61.30
2017-08-14T17:31:29.861Z,62.30
2017-08-14T17:33:58.275Z,62.70
2017-08-14T17:36:27.420Z,62.70
2017-08-14T17:38:55.832Z,62.70
2017-08-14T17:41:24.269Z,62.70
2017-08-14T17:43:52.645Z,62.70
2017-08-14T17:46:20.984Z,63.30
2017-08-14T17:48:51.581Z,63.40
2017-08-14T17:51:20.852Z,63.30
2017-08-14T17:53:50.388Z,63.30
2017-08-14T17:56:18.798Z,63.80
2017-08-14T17:58:48.182Z,63.50
2017-08-14T18:01:16.558Z,63.50
2017-08-14T18:03:44.947Z,63.40
2017-08-14T18:06:13.344Z,64.20
2017-08-14T18:08:41.793Z,64.70
2017-08-14T18:11:10.146Z,64.90
2017-08-14T18:13:38.513Z,65.70
2017-08-14T18:16:08.069Z,66.00
2017-08-14T18:18:37.198Z,66.40
2017-08-14T18:21:05.619Z,66.30
2017-08-14T18:23:33.952Z,66.40
2017-08-14T18:26:02.378Z,66.60
2017-08-14T18:28:30.783Z,66.70
2017-08-14T18:30:59.166Z,66.60
2017-08-14T18:33:27.577Z,66.60
2017-08-14T18:35:56.907Z,66.50
2017-08-14T18:38:25.343Z,66.70
2017-08-14T18:40:53.746Z,67.40
2017-08-14T18:43:23.881Z,67.20
2017-08-14T18:45:52.271Z,67.60
2017-08-14T18:48:20.643Z,67.90
2017-08-14T18:50:49.062Z,68.20
2017-08-14T18:53:18.193Z,68.80
2017-08-14T18:55:46.587Z,69.00
2017-08-14T18:58:14.978Z,69.70
2017-08-14T19:00:43.377Z,70.30
2017-08-14T19:03:11.747Z,71.40
2017-08-14T19:05:40.154Z,72.30
2017-08-14T19:08:10.962Z,73.20
2017-08-14T19:10:37.791Z,73.30
2017-08-14T19:13:06.250Z,73.50
2017-08-14T19:15:35.376Z,73.50
2017-08-14T19:18:04.568Z,72.90
2017-08-14T19:20:33.019Z,72.30
2017-08-14T19:23:01.431Z,71.80
2017-08-14T19:25:29.864Z,72.00
2017-08-14T19:27:58.299Z,72.00
2017-08-14T19:30:26.688Z,71.90
2017-08-14T19:32:55.081Z,71.70
2017-08-14T19:35:23.500Z,71.90
2017-08-14T19:37:51.946Z,71.90
2017-08-14T19:40:20.313Z,72.00
2017-08-14T19:42:48.779Z,71.60
2017-08-14T19:45:17.961Z,72.00
2017-08-14T19:47:46.372Z,72.10
2017-08-14T19:50:14.832Z,72.10
2017-08-14T19:52:43.985Z,72.40
2017-08-14T19:55:12.642Z,72.20
2017-08-14T19:57:41.011Z,72.50
2017-08-14T20:00:10.540Z,72.80
2017-08-14T20:02:38.884Z,72.80
2017-08-14T20:05:08.876Z,72.60
2017-08-14T20:07:39.006Z,72.50
2017-08-14T20:10:07.592Z,73.00
2017-08-14T20:12:36.058Z,73.70
2017-08-14T20:15:04.472Z,74.30
2017-08-14T20:17:32.920Z,74.20
2017-08-14T20:20:01.325Z,74.60
2017-08-14T20:22:29.686Z,74.60
2017-08-14T20:24:58.076Z,74.60
2017-08-14T20:27:26.437Z,75.00
2017-08-14T20:29:54.827Z,75.30
2017-08-14T20:32:23.178Z,75.60
2017-08-14T20:34:51.574Z,75.40
2017-08-14T20:37:19.909Z,75.60
2017-08-14T20:39:48.305Z,76.20
2017-08-14T20:42:16.791Z,76.90
2017-08-14T20:44:45.158Z,77.60
2017-08-14T20:47:13.549Z,77.50
2017-08-14T20:49:42.148Z,77.70
2017-08-14T20:52:10.533Z,77.80
2017-08-14T20:54:38.922Z,78.70
2017-08-14T20:57:08.351Z,79.60
2017-08-14T20:59:36.765Z,80.30
2017-08-14T21:02:05.127Z,80.00
2017-08-14T21:04:33.535Z,81.00
2017-08-14T21:07:01.965Z,80.90
2017-08-14T21:09:30.348Z,81.10
2017-08-14T21:11:58.792Z,81.10
2017-08-14T21:14:27.193Z,80.90
2017-08-14T21:16:55.588Z,81.30
2017-08-14T21:19:23.940Z,81.70
2017-08-14T21:21:52.314Z,82.30
2017-08-14T21:24:20.695Z,82.60
2017-08-14T21:26:49.058Z,82.70
2017-08-14T21:29:19.786Z,82.70
2017-08-14T21:31:48.135Z,83.40
2017-08-14T21:34:16.500Z,83.60
2017-08-14T21:36:44.851Z,83.80
2017-08-14T21:39:14.032Z,85.30
2017-08-14T21:41:42.434Z,85.30
2017-08-14T21:44:11.539Z,86.20
2017-08-14T21:46:39.936Z,86.20
2017-08-14T21:49:08.292Z,86.50
2017-08-14T21:51:36.713Z,86.70
2017-08-14T21:54:05.076Z,86.70
2017-08-14T21:56:33.428Z,87.00
2017-08-14T21:59:01.847Z,86.80
2017-08-14T22:01:30.241Z,87.80
2017-08-14T22:03:58.782Z,87.50
2017-08-14T22:06:27.142Z,88.10
2017-08-14T22:08:55.602Z,88.60
2017-08-14T22:11:24.027Z,89.20
2017-08-14T22:13:52.913Z,89.40
2017-08-14T22:16:21.288Z,89.60
2017-08-14T22:18:50.269Z,89.50
2017-08-14T22:21:18.671Z,89.30
2017-08-14T22:23:47.018Z,89.00
2017-08-14T22:26:15.367Z,89.60
2017-08-14T22:28:43.759Z,89.50
2017-08-14T22:31:12.879Z,89.10
2017-08-14T22:33:41.300Z,89.10
2017-08-14T22:36:09.784Z,89.70
2017-08-14T22:38:42.450Z,90.00
2017-08-14T22:41:15.789Z,90.10
2017-08-14T22:43:44.149Z,90.10
2017-08-14T22:46:12.532Z,90.20
2017-08-14T22:48:40.895Z,90.50
2017-08-14T22:51:09.396Z,90.10
2017-08-14T22:53:37.749Z,90.30
2017-08-14T22:56:06.128Z,90.20
2017-08-14T22:58:34.484Z,90.20
2017-08-14T23:01:02.886Z,90.20
2017-08-14T23:03:31.252Z,90.50
2017-08-14T23:05:59.604Z,90.80
2017-08-14T23:08:27.981Z,91.00
2017-08-14T23:10:56.359Z,90.90
2017-08-14T23:13:24.770Z,90.90
2017-08-14T23:15:53.137Z,91.00
2017-08-14T23:18:22.422Z,91.10
2017-08-14T23:20:50.802Z,91.20
2017-08-14T23:23:19.153Z,91.60
2017-08-14T23:25:48.560Z,91.60
2017-08-14T23:28:17.061Z,91.60
2017-08-14T23:30:45.427Z,91.90
2017-08-14T23:33:13.808Z,91.90
2017-08-14T23:35:42.174Z,91.90
2017-08-14T23:38:10.626Z,92.10
2017-08-14T23:40:39.145Z,92.20
2017-08-14T23:43:07.621Z,92.30
2017-08-14T23:45:36.040Z,92.30
2017-08-14T23:48:04.418Z,92.30
2017-08-14T23:50:33.737Z,92.40
2017-08-14T23:53:02.213Z,92.50
2017-08-14T23:55:30.570Z,92.80
2017-08-14T23:57:58.963Z,92.90
